• Join FlightAware (Why Join?)
  • Login
  • US Flag 
07:36PM EDT


 

Airport Tracker/Info


-or-


 

Live Flight TrackerFlight Track Log ✈ FLG3306 ✈ 20-Jul-2013 ✈ KORD - KMSP

Flight Track Log - Related Links

Times and Time Zones

All times are in EDT time to prevent confusion due to time zone crossing. See the FLG3306 flight status page for this flight to view local times or setup timezone preferences in your user account.

Time Position Orientation Groundspeed Altitude Reporting Facility
EDT Latitude Longitude Course Direction KTS MPH feet Rate Location/Type
10:17AM 42.0333 -87.9667 352° North 190 219 2,600  Level Chicago TRACON
10:18AM 42.0667 -87.9833 340° North 232 267 4,100 2,340 Climbing Chicago TRACON
10:19AM 42.2255 -87.9855 350° North  Level FlightAware Approximate
10:19AM 42.1497 -88.0122 346° North 258 297 7,300  Level Chicago Center
10:20AM 42.3134 -88.0075 350° North  Level FlightAware Approximate
10:20AM 42.2250 -88.0108 North 269 310 10,100  Level Chicago Center
10:21AM 42.3990 -88.0412 340° North  Level FlightAware Approximate
10:21AM 42.3056 -88.0103 360° North 289 333 11,700  Level Chicago Center
10:22AM 42.4865 -88.0639 352° North  Level FlightAware Approximate
10:22AM 42.4175 -88.0061 North 348 400 13,600  Level Chicago Center
10:23AM 42.5058 -88.0492 340° North 356 410 15,500 1,920 Climbing Chicago Center
10:24AM 42.5803 -88.1322 321° Northwest 346 398 17,600 1,740 Climbing Chicago Center
10:25AM 42.6550 -88.2219 319° Northwest 354 407 19,200 1,440 Climbing Chicago Center
10:26AM 42.7319 -88.3139 319° Northwest 362 417 20,600 1,320 Climbing Chicago Center
10:27AM 42.8106 -88.4092 318° Northwest 374 430 22,000 1,500 Climbing Chicago Center
10:28AM 42.9044 -88.5217 319° Northwest 382 440 23,700 1,380 Climbing Chicago Center
10:29AM 42.9864 -88.6189 319° Northwest 388 447 24,900 1,140 Climbing Chicago Center
10:30AM 43.0706 -88.7206 319° Northwest 398 458 26,100 1,260 Climbing Chicago Center
10:32AM 43.1564 -88.8244 319° Northwest 406 467 27,600 1,500 Climbing Chicago Center
10:33AM 43.2386 -88.9231 319° Northwest 394 453 29,300 1,620 Climbing Chicago Center
10:34AM 43.3203 -89.0222 319° Northwest 390 449 31,000 1,260 Climbing Chicago Center
10:35AM 43.4144 -89.1381 318° Northwest 388 447 32,000 480 Climbing Chicago Center
10:36AM 43.4953 -89.2372 318° Northwest 387 445 32,000  Level Chicago Center
10:37AM 43.5675 -89.3497 312° West 390 449 32,000  Level Chicago Center
10:38AM 43.6400 -89.4603 312° West 390 449 32,000  Level Chicago Center
10:39AM 43.7122 -89.5714 312° West 387 445 32,000  Level Chicago Center
10:40AM 43.7856 -89.6858 312° West 396 456 32,000  Level Chicago Center
10:41AM 43.8717 -89.8203 312° West 397 457 32,000  Level Chicago Center
10:41AM 43.9072 -89.8781 311° West 400 460 32,000  Level Minneapolis Center
10:42AM 43.9814 -89.9928 312° West 400 460 32,000  Level Minneapolis Center
10:43AM 44.0547 -90.1106 311° West 402 463 32,000  Level Minneapolis Center
10:44AM 44.1381 -90.2492 310° West 401 461 32,000  Level Minneapolis Center
10:46AM 44.1883 -90.3831 298° West 391 450 32,000  Level Minneapolis Center
10:47AM 44.2364 -90.5136 297° West 382 440 32,000  Level Minneapolis Center
10:48AM 44.2853 -90.6397 298° West 381 438 32,000 -60 Level Minneapolis Center
10:49AM 44.3344 -90.7747 297° West 379 436 31,900 -1,140 Descending Minneapolis Center
10:50AM 44.3892 -90.9261 297° West 385 443 29,700 -2,040 Descending Minneapolis Center
10:51AM 44.4367 -91.0564 297° West 382 440 27,700 -1,980 Descending Minneapolis Center
10:52AM 44.4817 -91.1817 297° West 372 428 25,700 -1,980 Descending Minneapolis Center
10:53AM 44.5247 -91.3033 296° West 361 415 23,700 -1,800 Descending Minneapolis Center
10:54AM 44.5725 -91.4314 298° West 365 420 21,700 -1,800 Descending Minneapolis Center
10:55AM 44.6306 -91.5933 297° West 384 442 19,300 -2,340 Descending Minneapolis Center
10:56AM 44.6933 -91.7719 296° West 369 425 16,500 -2,340 Descending Minneapolis Center
10:57AM 44.7367 -91.8969 296° West 358 412 14,500 -1,980 Descending Minneapolis Center
10:58AM 44.7778 -92.0142 296° West 336 387 12,500 -1,980 Descending Minneapolis Center
10:59AM 44.8172 -92.1278 296° West 326 375 10,500 -1,200 Descending Minneapolis Center
11:00AM 44.8628 -92.2594 296° West 314 361 10,000 -240 Descending Minneapolis Center
11:01AM 44.8986 -92.3633 296° West 299 344 10,000  Level Minneapolis Center
11:02AM 44.9217 -92.4736 286° West 305 351 10,000 -240 Level Minneapolis Center
11:04AM 44.8561 -92.5494 219° Southwest 309 356 9,600 -960 Descending Minneapolis Center
11:05AM 44.8056 -92.6233 226° Southwest 272 313 8,100 -1,500 Descending Minneapolis Center
11:06AM 44.7797 -92.6944 243° Southwest 257 296 6,600 -1,500 Descending Minneapolis Center
11:07AM 44.7542 -92.8056 252° West 252 290 5,000 -780 Descending Minneapolis Center
11:08AM 44.7586 -92.9072 274° West 218 251 5,000 -240 Level Minneapolis Center
11:09AM 44.7775 -92.9814 290° West 204 235 4,600 -420 Descending Minneapolis Center